sensor_id;sensor_type;location;lat;lon;timestamp;P1;durP1;ratioP1;P2;durP2;ratioP2
11086;SDS011;5597;47.588;9.642;2023-03-14T00:00:07;0.57;;;0.53;;
11086;SDS011;5597;47.588;9.642;2023-03-14T00:02:38;1.00;;;0.50;;
11086;SDS011;5597;47.588;9.642;2023-03-14T00:05:04;0.40;;;0.40;;
11086;SDS011;5597;47.588;9.642;2023-03-14T00:07:31;0.43;;;0.20;;
11086;SDS011;5597;47.588;9.642;2023-03-14T00:10:09;1.47;;;0.40;;
11086;SDS011;5597;47.588;9.642;2023-03-14T00:12:36;0.53;;;0.50;;
11086;SDS011;5597;47.588;9.642;2023-03-14T00:15:02;0.80;;;0.30;;
11086;SDS011;5597;47.588;9.642;2023-03-14T00:17:32;1.03;;;0.30;;
11086;SDS011;5597;47.588;9.642;2023-03-14T00:19:59;1.40;;;0.40;;
11086;SDS011;5597;47.588;9.642;2023-03-14T00:22:33;0.30;;;0.30;;
11086;SDS011;5597;47.588;9.642;2023-03-14T00:25:02;0.20;;;0.20;;
11086;SDS011;5597;47.588;9.642;2023-03-14T00:27:29;1.00;;;0.43;;
11086;SDS011;5597;47.588;9.642;2023-03-14T00:29:55;0.90;;;0.30;;
11086;SDS011;5597;47.588;9.642;2023-03-14T00:32:20;0.70;;;0.40;;
11086;SDS011;5597;47.588;9.642;2023-03-14T00:34:46;1.87;;;0.60;;
11086;SDS011;5597;47.588;9.642;2023-03-14T00:37:12;0.50;;;0.47;;
11086;SDS011;5597;47.588;9.642;2023-03-14T00:39:37;1.13;;;0.60;;
11086;SDS011;5597;47.588;9.642;2023-03-14T00:42:03;1.07;;;0.60;;
11086;SDS011;5597;47.588;9.642;2023-03-14T00:44:28;1.00;;;0.50;;
11086;SDS011;5597;47.588;9.642;2023-03-14T00:46:54;1.20;;;0.70;;
11086;SDS011;5597;47.588;9.642;2023-03-14T00:49:20;0.73;;;0.57;;
11086;SDS011;5597;47.588;9.642;2023-03-14T00:51:45;1.27;;;0.70;;
11086;SDS011;5597;47.588;9.642;2023-03-14T00:54:11;1.80;;;0.70;;
11086;SDS011;5597;47.588;9.642;2023-03-14T00:56:36;0.80;;;0.60;;
11086;SDS011;5597;47.588;9.642;2023-03-14T00:59:02;0.77;;;0.50;;
11086;SDS011;5597;47.588;9.642;2023-03-14T01:01:27;2.40;;;0.90;;
11086;SDS011;5597;47.588;9.642;2023-03-14T01:03:54;1.97;;;0.60;;
11086;SDS011;5597;47.588;9.642;2023-03-14T01:06:21;1.73;;;0.60;;
11086;SDS011;5597;47.588;9.642;2023-03-14T01:08:52;1.40;;;0.60;;
11086;SDS011;5597;47.588;9.642;2023-03-14T01:11:23;0.30;;;0.30;;
11086;SDS011;5597;47.588;9.642;2023-03-14T01:13:54;0.53;;;0.53;;
11086;SDS011;5597;47.588;9.642;2023-03-14T01:16:21;0.37;;;0.37;;
11086;SDS011;5597;47.588;9.642;2023-03-14T01:18:48;0.43;;;0.43;;
11086;SDS011;5597;47.588;9.642;2023-03-14T01:21:15;0.60;;;0.37;;
11086;SDS011;5597;47.588;9.642;2023-03-14T01:23:44;0.40;;;0.40;;
11086;SDS011;5597;47.588;9.642;2023-03-14T01:26:11;0.30;;;0.20;;
11086;SDS011;5597;47.588;9.642;2023-03-14T01:28:37;0.27;;;0.27;;
11086;SDS011;5597;47.588;9.642;2023-03-14T01:31:04;0.20;;;0.20;;
11086;SDS011;5597;47.588;9.642;2023-03-14T01:33:31;0.30;;;0.30;;
11086;SDS011;5597;47.588;9.642;2023-03-14T01:35:57;2.40;;;0.47;;
11086;SDS011;5597;47.588;9.642;2023-03-14T01:38:22;0.50;;;0.40;;
11086;SDS011;5597;47.588;9.642;2023-03-14T01:40:48;0.30;;;0.30;;
11086;SDS011;5597;47.588;9.642;2023-03-14T01:43:15;0.50;;;0.37;;
11086;SDS011;5597;47.588;9.642;2023-03-14T01:49:11;0.30;;;0.30;;
11086;SDS011;5597;47.588;9.642;2023-03-14T01:56:47;1.67;;;0.60;;
11086;SDS011;5597;47.588;9.642;2023-03-14T01:59:17;0.30;;;0.30;;
11086;SDS011;5597;47.588;9.642;2023-03-14T02:01:43;0.57;;;0.40;;
11086;SDS011;5597;47.588;9.642;2023-03-14T02:04:11;0.40;;;0.40;;
11086;SDS011;5597;47.588;9.642;2023-03-14T02:06:40;0.30;;;0.30;;
11086;SDS011;5597;47.588;9.642;2023-03-14T02:09:10;1.00;;;0.40;;
11086;SDS011;5597;47.588;9.642;2023-03-14T02:11:35;0.40;;;0.40;;
11086;SDS011;5597;47.588;9.642;2023-03-14T02:14:01;0.40;;;0.40;;
11086;SDS011;5597;47.588;9.642;2023-03-14T02:16:28;0.77;;;0.60;;
11086;SDS011;5597;47.588;9.642;2023-03-14T02:18:55;1.40;;;0.47;;
11086;SDS011;5597;47.588;9.642;2023-03-14T02:21:26;0.53;;;0.40;;
11086;SDS011;5597;47.588;9.642;2023-03-14T02:27:46;0.30;;;0.30;;
11086;SDS011;5597;47.588;9.642;2023-03-14T02:30:18;0.77;;;0.30;;
11086;SDS011;5597;47.588;9.642;2023-03-14T02:32:46;0.30;;;0.30;;
11086;SDS011;5597;47.588;9.642;2023-03-14T02:35:16;1.50;;;0.10;;
11086;SDS011;5597;47.588;9.642;2023-03-14T02:37:55;0.20;;;0.20;;
11086;SDS011;5597;47.588;9.642;2023-03-14T02:40:39;0.20;;;0.20;;
11086;SDS011;5597;47.588;9.642;2023-03-14T02:43:05;0.23;;;0.20;;
11086;SDS011;5597;47.588;9.642;2023-03-14T02:45:35;1.07;;;0.30;;
11086;SDS011;5597;47.588;9.642;2023-03-14T02:48:19;0.30;;;0.30;;
11086;SDS011;5597;47.588;9.642;2023-03-14T02:50:50;0.20;;;0.20;;
11086;SDS011;5597;47.588;9.642;2023-03-14T02:53:20;0.20;;;0.20;;
11086;SDS011;5597;47.588;9.642;2023-03-14T02:55:50;0.30;;;0.30;;
11086;SDS011;5597;47.588;9.642;2023-03-14T02:58:16;0.40;;;0.37;;
11086;SDS011;5597;47.588;9.642;2023-03-14T03:00:43;0.37;;;0.30;;
11086;SDS011;5597;47.588;9.642;2023-03-14T03:03:08;0.83;;;0.17;;
11086;SDS011;5597;47.588;9.642;2023-03-14T03:05:34;0.17;;;0.13;;
11086;SDS011;5597;47.588;9.642;2023-03-14T03:08:00;0.20;;;0.20;;
11086;SDS011;5597;47.588;9.642;2023-03-14T03:10:26;0.40;;;0.40;;
11086;SDS011;5597;47.588;9.642;2023-03-14T03:12:52;0.20;;;0.10;;
11086;SDS011;5597;47.588;9.642;2023-03-14T03:15:18;0.20;;;0.20;;
11086;SDS011;5597;47.588;9.642;2023-03-14T03:17:44;0.33;;;0.30;;
11086;SDS011;5597;47.588;9.642;2023-03-14T03:20:09;0.13;;;0.13;;
11086;SDS011;5597;47.588;9.642;2023-03-14T03:22:35;0.20;;;0.20;;
11086;SDS011;5597;47.588;9.642;2023-03-14T03:25:02;0.30;;;0.20;;
11086;SDS011;5597;47.588;9.642;2023-03-14T03:27:33;0.10;;;0.10;;
11086;SDS011;5597;47.588;9.642;2023-03-14T03:30:00;0.10;;;0.10;;
11086;SDS011;5597;47.588;9.642;2023-03-14T03:32:26;0.10;;;0.10;;
11086;SDS011;5597;47.588;9.642;2023-03-14T03:34:52;0.20;;;0.20;;
11086;SDS011;5597;47.588;9.642;2023-03-14T03:37:18;0.20;;;0.10;;
11086;SDS011;5597;47.588;9.642;2023-03-14T03:39:44;0.20;;;0.20;;
11086;SDS011;5597;47.588;9.642;2023-03-14T03:42:09;0.20;;;0.20;;
11086;SDS011;5597;47.588;9.642;2023-03-14T03:44:35;0.07;;;0.07;;
11086;SDS011;5597;47.588;9.642;2023-03-14T03:47:01;0.07;;;0.07;;
11086;SDS011;5597;47.588;9.642;2023-03-14T03:49:30;0.10;;;0.10;;
11086;SDS011;5597;47.588;9.642;2023-03-14T03:51:56;0.10;;;0.10;;
11086;SDS011;5597;47.588;9.642;2023-03-14T03:54:22;0.10;;;0.10;;
11086;SDS011;5597;47.588;9.642;2023-03-14T03:56:48;0.10;;;0.10;;
11086;SDS011;5597;47.588;9.642;2023-03-14T03:59:14;0.10;;;0.10;;
11086;SDS011;5597;47.588;9.642;2023-03-14T04:01:39;0.10;;;0.10;;
11086;SDS011;5597;47.588;9.642;2023-03-14T04:04:05;0.30;;;0.20;;
11086;SDS011;5597;47.588;9.642;2023-03-14T04:06:31;1.03;;;0.20;;
11086;SDS011;5597;47.588;9.642;2023-03-14T04:08:56;0.30;;;0.10;;
11086;SDS011;5597;47.588;9.642;2023-03-14T04:11:22;0.13;;;0.13;;
11086;SDS011;5597;47.588;9.642;2023-03-14T04:13:48;0.07;;;0.07;;
11086;SDS011;5597;47.588;9.642;2023-03-14T04:16:14;0.20;;;0.20;;
11086;SDS011;5597;47.588;9.642;2023-03-14T04:18:43;0.00;;;0.00;;
11086;SDS011;5597;47.588;9.642;2023-03-14T04:21:09;0.00;;;0.00;;
11086;SDS011;5597;47.588;9.642;2023-03-14T04:23:34;0.10;;;0.10;;
11086;SDS011;5597;47.588;9.642;2023-03-14T04:26:00;0.10;;;0.10;;
11086;SDS011;5597;47.588;9.642;2023-03-14T04:28:25;0.10;;;0.10;;
11086;SDS011;5597;47.588;9.642;2023-03-14T04:30:51;0.13;;;0.07;;
11086;SDS011;5597;47.588;9.642;2023-03-14T04:33:16;0.20;;;0.20;;
11086;SDS011;5597;47.588;9.642;2023-03-14T04:35:43;0.10;;;0.10;;
11086;SDS011;5597;47.588;9.642;2023-03-14T04:38:09;0.13;;;0.13;;
11086;SDS011;5597;47.588;9.642;2023-03-14T04:40:38;0.17;;;0.17;;
11086;SDS011;5597;47.588;9.642;2023-03-14T04:43:05;0.10;;;0.10;;
11086;SDS011;5597;47.588;9.642;2023-03-14T04:45:31;0.60;;;0.40;;
11086;SDS011;5597;47.588;9.642;2023-03-14T04:47:56;0.40;;;0.40;;
11086;SDS011;5597;47.588;9.642;2023-03-14T04:50:22;1.40;;;1.20;;
11086;SDS011;5597;47.588;9.642;2023-03-14T04:52:48;1.50;;;1.40;;
11086;SDS011;5597;47.588;9.642;2023-03-14T04:55:13;3.57;;;1.60;;
11086;SDS011;5597;47.588;9.642;2023-03-14T04:57:39;2.03;;;1.80;;
11086;SDS011;5597;47.588;9.642;2023-03-14T05:00:05;2.83;;;2.00;;
11086;SDS011;5597;47.588;9.642;2023-03-14T05:02:31;1.60;;;1.40;;
11086;SDS011;5597;47.588;9.642;2023-03-14T05:04:57;1.47;;;1.20;;
11086;SDS011;5597;47.588;9.642;2023-03-14T05:07:22;1.70;;;1.30;;
11086;SDS011;5597;47.588;9.642;2023-03-14T05:09:48;1.40;;;1.10;;
11086;SDS011;5597;47.588;9.642;2023-03-14T05:12:13;1.20;;;0.80;;
11086;SDS011;5597;47.588;9.642;2023-03-14T05:14:39;0.70;;;0.70;;
11086;SDS011;5597;47.588;9.642;2023-03-14T05:17:05;0.60;;;0.60;;
11086;SDS011;5597;47.588;9.642;2023-03-14T05:19:30;0.60;;;0.50;;
11086;SDS011;5597;47.588;9.642;2023-03-14T05:21:56;0.40;;;0.40;;
11086;SDS011;5597;47.588;9.642;2023-03-14T05:24:22;0.50;;;0.50;;
11086;SDS011;5597;47.588;9.642;2023-03-14T05:26:47;0.50;;;0.50;;
11086;SDS011;5597;47.588;9.642;2023-03-14T05:29:13;0.40;;;0.40;;
11086;SDS011;5597;47.588;9.642;2023-03-14T05:31:38;0.67;;;0.60;;
11086;SDS011;5597;47.588;9.642;2023-03-14T05:34:04;0.50;;;0.50;;
11086;SDS011;5597;47.588;9.642;2023-03-14T05:36:30;0.90;;;0.50;;
11086;SDS011;5597;47.588;9.642;2023-03-14T05:38:55;0.67;;;0.67;;
11086;SDS011;5597;47.588;9.642;2023-03-14T05:41:21;0.80;;;0.63;;
11086;SDS011;5597;47.588;9.642;2023-03-14T05:43:46;0.40;;;0.40;;
11086;SDS011;5597;47.588;9.642;2023-03-14T05:46:12;0.57;;;0.57;;
11086;SDS011;5597;47.588;9.642;2023-03-14T05:48:37;0.40;;;0.40;;
11086;SDS011;5597;47.588;9.642;2023-03-14T05:51:03;0.60;;;0.60;;
11086;SDS011;5597;47.588;9.642;2023-03-14T05:53:29;1.47;;;0.60;;
11086;SDS011;5597;47.588;9.642;2023-03-14T05:55:55;0.50;;;0.50;;
11086;SDS011;5597;47.588;9.642;2023-03-14T05:58:22;0.70;;;0.70;;
11086;SDS011;5597;47.588;9.642;2023-03-14T06:00:48;0.33;;;0.33;;
11086;SDS011;5597;47.588;9.642;2023-03-14T06:03:14;0.37;;;0.37;;
11086;SDS011;5597;47.588;9.642;2023-03-14T06:05:40;0.50;;;0.50;;
11086;SDS011;5597;47.588;9.642;2023-03-14T06:08:05;0.60;;;0.50;;
11086;SDS011;5597;47.588;9.642;2023-03-14T06:10:31;0.60;;;0.60;;
11086;SDS011;5597;47.588;9.642;2023-03-14T06:12:56;0.57;;;0.57;;
11086;SDS011;5597;47.588;9.642;2023-03-14T06:15:22;0.70;;;0.70;;
11086;SDS011;5597;47.588;9.642;2023-03-14T06:17:47;0.70;;;0.70;;
11086;SDS011;5597;47.588;9.642;2023-03-14T06:20:13;0.80;;;0.60;;
11086;SDS011;5597;47.588;9.642;2023-03-14T06:22:39;0.63;;;0.63;;
11086;SDS011;5597;47.588;9.642;2023-03-14T06:25:05;0.60;;;0.60;;
11086;SDS011;5597;47.588;9.642;2023-03-14T06:27:32;3.67;;;2.47;;
11086;SDS011;5597;47.588;9.642;2023-03-14T06:29:58;2.23;;;1.80;;
11086;SDS011;5597;47.588;9.642;2023-03-14T06:32:24;1.20;;;1.10;;
11086;SDS011;5597;47.588;9.642;2023-03-14T06:34:50;1.00;;;0.90;;
11086;SDS011;5597;47.588;9.642;2023-03-14T06:37:15;1.10;;;1.00;;
11086;SDS011;5597;47.588;9.642;2023-03-14T06:39:41;1.10;;;1.00;;
11086;SDS011;5597;47.588;9.642;2023-03-14T06:42:08;1.50;;;1.40;;
11086;SDS011;5597;47.588;9.642;2023-03-14T06:44:34;2.10;;;1.90;;
11086;SDS011;5597;47.588;9.642;2023-03-14T06:47:00;9.40;;;8.40;;
11086;SDS011;5597;47.588;9.642;2023-03-14T06:49:26;5.40;;;4.83;;
11086;SDS011;5597;47.588;9.642;2023-03-14T06:51:51;6.57;;;4.90;;
11086;SDS011;5597;47.588;9.642;2023-03-14T06:54:17;6.67;;;5.33;;
11086;SDS011;5597;47.588;9.642;2023-03-14T06:56:43;3.70;;;3.30;;
11086;SDS011;5597;47.588;9.642;2023-03-14T06:59:08;4.83;;;3.93;;
11086;SDS011;5597;47.588;9.642;2023-03-14T07:01:34;3.97;;;3.57;;
11086;SDS011;5597;47.588;9.642;2023-03-14T07:04:03;4.10;;;3.20;;
11086;SDS011;5597;47.588;9.642;2023-03-14T07:06:28;4.33;;;3.93;;
11086;SDS011;5597;47.588;9.642;2023-03-14T07:08:54;2.20;;;2.00;;
11086;SDS011;5597;47.588;9.642;2023-03-14T07:11:20;1.83;;;1.40;;
11086;SDS011;5597;47.588;9.642;2023-03-14T07:13:46;1.70;;;1.60;;
11086;SDS011;5597;47.588;9.642;2023-03-14T07:16:12;1.90;;;1.80;;
11086;SDS011;5597;47.588;9.642;2023-03-14T07:18:38;1.30;;;1.20;;
11086;SDS011;5597;47.588;9.642;2023-03-14T07:21:04;1.50;;;1.30;;
11086;SDS011;5597;47.588;9.642;2023-03-14T07:23:30;1.47;;;1.37;;
11086;SDS011;5597;47.588;9.642;2023-03-14T07:25:56;1.40;;;1.30;;
11086;SDS011;5597;47.588;9.642;2023-03-14T07:28:22;2.10;;;1.90;;
11086;SDS011;5597;47.588;9.642;2023-03-14T07:30:48;1.90;;;1.70;;
11086;SDS011;5597;47.588;9.642;2023-03-14T07:33:14;1.30;;;1.17;;
11086;SDS011;5597;47.588;9.642;2023-03-14T07:35:40;0.70;;;0.70;;
11086;SDS011;5597;47.588;9.642;2023-03-14T07:38:06;1.63;;;0.90;;
11086;SDS011;5597;47.588;9.642;2023-03-14T07:40:31;1.23;;;0.70;;
11086;SDS011;5597;47.588;9.642;2023-03-14T07:42:57;0.87;;;0.87;;
11086;SDS011;5597;47.588;9.642;2023-03-14T07:45:23;0.97;;;0.87;;
11086;SDS011;5597;47.588;9.642;2023-03-14T07:47:48;0.70;;;0.70;;
11086;SDS011;5597;47.588;9.642;2023-03-14T07:50:14;0.80;;;0.80;;
11086;SDS011;5597;47.588;9.642;2023-03-14T07:52:39;0.70;;;0.70;;
11086;SDS011;5597;47.588;9.642;2023-03-14T07:55:05;0.70;;;0.70;;
11086;SDS011;5597;47.588;9.642;2023-03-14T07:57:31;1.23;;;0.90;;
11086;SDS011;5597;47.588;9.642;2023-03-14T07:59:57;1.23;;;0.80;;
11086;SDS011;5597;47.588;9.642;2023-03-14T08:02:22;0.70;;;0.70;;
11086;SDS011;5597;47.588;9.642;2023-03-14T08:04:49;0.83;;;0.83;;
11086;SDS011;5597;47.588;9.642;2023-03-14T08:07:14;0.60;;;0.60;;
11086;SDS011;5597;47.588;9.642;2023-03-14T08:09:41;0.60;;;0.60;;
11086;SDS011;5597;47.588;9.642;2023-03-14T08:12:06;0.40;;;0.40;;
11086;SDS011;5597;47.588;9.642;2023-03-14T08:14:32;0.90;;;0.57;;
11086;SDS011;5597;47.588;9.642;2023-03-14T08:16:58;1.10;;;0.80;;
11086;SDS011;5597;47.588;9.642;2023-03-14T08:19:24;0.70;;;0.70;;
11086;SDS011;5597;47.588;9.642;2023-03-14T08:21:49;0.53;;;0.53;;
11086;SDS011;5597;47.588;9.642;2023-03-14T08:24:15;0.50;;;0.50;;
11086;SDS011;5597;47.588;9.642;2023-03-14T08:26:41;0.50;;;0.50;;
11086;SDS011;5597;47.588;9.642;2023-03-14T08:29:06;0.90;;;0.60;;
11086;SDS011;5597;47.588;9.642;2023-03-14T08:31:33;1.03;;;0.60;;
11086;SDS011;5597;47.588;9.642;2023-03-14T08:34:02;0.50;;;0.43;;
11086;SDS011;5597;47.588;9.642;2023-03-14T08:36:28;0.40;;;0.40;;
11086;SDS011;5597;47.588;9.642;2023-03-14T08:38:53;0.83;;;0.50;;
11086;SDS011;5597;47.588;9.642;2023-03-14T08:41:19;0.60;;;0.50;;
11086;SDS011;5597;47.588;9.642;2023-03-14T08:43:44;0.80;;;0.40;;
11086;SDS011;5597;47.588;9.642;2023-03-14T08:46:10;2.40;;;0.70;;
11086;SDS011;5597;47.588;9.642;2023-03-14T08:48:36;0.50;;;0.50;;
11086;SDS011;5597;47.588;9.642;2023-03-14T08:51:05;0.30;;;0.30;;
11086;SDS011;5597;47.588;9.642;2023-03-14T08:53:39;1.10;;;0.47;;
11086;SDS011;5597;47.588;9.642;2023-03-14T08:56:05;0.50;;;0.30;;
11086;SDS011;5597;47.588;9.642;2023-03-14T08:58:33;1.07;;;0.53;;
11086;SDS011;5597;47.588;9.642;2023-03-14T09:00:58;0.50;;;0.50;;
11086;SDS011;5597;47.588;9.642;2023-03-14T09:03:24;0.73;;;0.30;;
11086;SDS011;5597;47.588;9.642;2023-03-14T09:05:51;0.30;;;0.30;;
11086;SDS011;5597;47.588;9.642;2023-03-14T09:08:17;0.40;;;0.40;;
11086;SDS011;5597;47.588;9.642;2023-03-14T09:10:43;0.47;;;0.40;;
11086;SDS011;5597;47.588;9.642;2023-03-14T09:13:08;1.27;;;0.40;;
11086;SDS011;5597;47.588;9.642;2023-03-14T09:15:34;0.40;;;0.30;;
11086;SDS011;5597;47.588;9.642;2023-03-14T09:17:59;0.80;;;0.40;;
11086;SDS011;5597;47.588;9.642;2023-03-14T09:20:25;0.70;;;0.40;;
11086;SDS011;5597;47.588;9.642;2023-03-14T09:22:51;0.73;;;0.40;;
11086;SDS011;5597;47.588;9.642;2023-03-14T09:25:17;0.40;;;0.40;;
11086;SDS011;5597;47.588;9.642;2023-03-14T09:27:42;0.37;;;0.30;;
11086;SDS011;5597;47.588;9.642;2023-03-14T09:30:08;0.53;;;0.30;;
11086;SDS011;5597;47.588;9.642;2023-03-14T09:32:34;0.37;;;0.30;;
11086;SDS011;5597;47.588;9.642;2023-03-14T09:35:00;0.40;;;0.30;;
11086;SDS011;5597;47.588;9.642;2023-03-14T09:37:26;0.83;;;0.53;;
11086;SDS011;5597;47.588;9.642;2023-03-14T09:39:51;0.50;;;0.50;;
11086;SDS011;5597;47.588;9.642;2023-03-14T09:42:18;0.40;;;0.40;;
11086;SDS011;5597;47.588;9.642;2023-03-14T09:47:22;0.53;;;0.53;;
11086;SDS011;5597;47.588;9.642;2023-03-14T09:49:49;0.80;;;0.63;;
11086;SDS011;5597;47.588;9.642;2023-03-14T09:52:17;0.40;;;0.40;;
11086;SDS011;5597;47.588;9.642;2023-03-14T09:54:47;0.87;;;0.57;;
11086;SDS011;5597;47.588;9.642;2023-03-14T09:57:15;0.60;;;0.60;;
11086;SDS011;5597;47.588;9.642;2023-03-14T09:59:44;0.77;;;0.73;;
11086;SDS011;5597;47.588;9.642;2023-03-14T10:02:15;0.80;;;0.60;;
11086;SDS011;5597;47.588;9.642;2023-03-14T10:04:53;0.83;;;0.57;;
11086;SDS011;5597;47.588;9.642;2023-03-14T10:07:23;0.70;;;0.60;;
11086;SDS011;5597;47.588;9.642;2023-03-14T10:09:55;1.00;;;0.60;;
11086;SDS011;5597;47.588;9.642;2023-03-14T10:12:30;0.70;;;0.50;;
11086;SDS011;5597;47.588;9.642;2023-03-14T10:15:02;0.47;;;0.47;;
11086;SDS011;5597;47.588;9.642;2023-03-14T10:17:37;0.63;;;0.60;;
11086;SDS011;5597;47.588;9.642;2023-03-14T10:20:25;1.67;;;0.60;;
11086;SDS011;5597;47.588;9.642;2023-03-14T10:22:58;1.00;;;0.60;;
11086;SDS011;5597;47.588;9.642;2023-03-14T10:25:30;0.80;;;0.67;;
11086;SDS011;5597;47.588;9.642;2023-03-14T10:27:57;1.30;;;0.60;;
11086;SDS011;5597;47.588;9.642;2023-03-14T10:33:15;0.40;;;0.40;;
11086;SDS011;5597;47.588;9.642;2023-03-14T10:35:45;0.40;;;0.40;;
11086;SDS011;5597;47.588;9.642;2023-03-14T10:38:12;0.40;;;0.40;;
11086;SDS011;5597;47.588;9.642;2023-03-14T10:40:42;0.73;;;0.33;;
11086;SDS011;5597;47.588;9.642;2023-03-14T10:43:15;0.53;;;0.50;;
11086;SDS011;5597;47.588;9.642;2023-03-14T10:45:44;0.53;;;0.53;;
11086;SDS011;5597;47.588;9.642;2023-03-14T10:48:19;0.40;;;0.40;;
11086;SDS011;5597;47.588;9.642;2023-03-14T10:50:54;0.47;;;0.43;;
11086;SDS011;5597;47.588;9.642;2023-03-14T10:56:12;0.60;;;0.53;;
11086;SDS011;5597;47.588;9.642;2023-03-14T10:58:41;0.30;;;0.30;;
11086;SDS011;5597;47.588;9.642;2023-03-14T11:01:15;0.43;;;0.43;;
11086;SDS011;5597;47.588;9.642;2023-03-14T11:04:00;1.00;;;0.60;;
11086;SDS011;5597;47.588;9.642;2023-03-14T11:09:25;0.70;;;0.40;;
11086;SDS011;5597;47.588;9.642;2023-03-14T11:12:03;0.40;;;0.40;;
11086;SDS011;5597;47.588;9.642;2023-03-14T11:14:54;0.93;;;0.60;;
11086;SDS011;5597;47.588;9.642;2023-03-14T11:20:04;0.90;;;0.80;;
11086;SDS011;5597;47.588;9.642;2023-03-14T11:22:40;0.50;;;0.50;;
11086;SDS011;5597;47.588;9.642;2023-03-14T11:25:19;0.67;;;0.47;;
11086;SDS011;5597;47.588;9.642;2023-03-14T11:28:18;1.10;;;0.57;;
11086;SDS011;5597;47.588;9.642;2023-03-14T11:30:49;1.00;;;0.60;;
11086;SDS011;5597;47.588;9.642;2023-03-14T11:33:21;0.77;;;0.50;;
11086;SDS011;5597;47.588;9.642;2023-03-14T11:36:03;0.70;;;0.50;;
11086;SDS011;5597;47.588;9.642;2023-03-14T11:41:15;0.40;;;0.40;;
11086;SDS011;5597;47.588;9.642;2023-03-14T11:43:47;1.10;;;0.50;;
11086;SDS011;5597;47.588;9.642;2023-03-14T11:49:11;0.50;;;0.50;;
11086;SDS011;5597;47.588;9.642;2023-03-14T11:51:57;0.50;;;0.50;;
11086;SDS011;5597;47.588;9.642;2023-03-14T11:54:31;0.70;;;0.60;;
11086;SDS011;5597;47.588;9.642;2023-03-14T11:57:05;0.60;;;0.50;;
11086;SDS011;5597;47.588;9.642;2023-03-14T11:59:58;0.80;;;0.50;;
11086;SDS011;5597;47.588;9.642;2023-03-14T12:05:43;1.20;;;0.80;;
11086;SDS011;5597;47.588;9.642;2023-03-14T12:08:31;0.93;;;0.70;;
11086;SDS011;5597;47.588;9.642;2023-03-14T12:13:55;1.37;;;0.53;;
11086;SDS011;5597;47.588;9.642;2023-03-14T12:18:53;0.50;;;0.50;;
11086;SDS011;5597;47.588;9.642;2023-03-14T12:21:19;0.50;;;0.50;;
11086;SDS011;5597;47.588;9.642;2023-03-14T12:24:14;0.97;;;0.50;;
11086;SDS011;5597;47.588;9.642;2023-03-14T12:26:54;1.20;;;0.40;;
11086;SDS011;5597;47.588;9.642;2023-03-14T12:29:21;1.00;;;0.40;;
11086;SDS011;5597;47.588;9.642;2023-03-14T12:32:12;0.43;;;0.40;;
11086;SDS011;5597;47.588;9.642;2023-03-14T12:34:47;0.50;;;0.50;;
11086;SDS011;5597;47.588;9.642;2023-03-14T12:37:29;0.63;;;0.50;;
11086;SDS011;5597;47.588;9.642;2023-03-14T12:40:12;1.00;;;0.40;;
11086;SDS011;5597;47.588;9.642;2023-03-14T12:42:54;1.00;;;0.47;;
11086;SDS011;5597;47.588;9.642;2023-03-14T12:45:33;0.47;;;0.27;;
11086;SDS011;5597;47.588;9.642;2023-03-14T12:48:04;1.00;;;0.43;;
11086;SDS011;5597;47.588;9.642;2023-03-14T12:50:53;0.40;;;0.40;;
11086;SDS011;5597;47.588;9.642;2023-03-14T12:56:40;1.37;;;0.57;;
11086;SDS011;5597;47.588;9.642;2023-03-14T12:59:33;0.93;;;0.43;;
11086;SDS011;5597;47.588;9.642;2023-03-14T13:04:44;0.87;;;0.40;;
11086;SDS011;5597;47.588;9.642;2023-03-14T13:07:15;0.33;;;0.20;;
11086;SDS011;5597;47.588;9.642;2023-03-14T13:10:04;1.03;;;0.30;;
11086;SDS011;5597;47.588;9.642;2023-03-14T13:12:53;0.13;;;0.13;;
11086;SDS011;5597;47.588;9.642;2023-03-14T13:16:01;0.27;;;0.27;;
11086;SDS011;5597;47.588;9.642;2023-03-14T13:21:07;0.87;;;0.53;;
11086;SDS011;5597;47.588;9.642;2023-03-14T13:24:05;0.83;;;0.67;;
11086;SDS011;5597;47.588;9.642;2023-03-14T13:26:35;0.60;;;0.40;;
11086;SDS011;5597;47.588;9.642;2023-03-14T13:29:15;0.63;;;0.30;;
11086;SDS011;5597;47.588;9.642;2023-03-14T13:31:44;0.30;;;0.27;;
11086;SDS011;5597;47.588;9.642;2023-03-14T13:34:11;2.13;;;1.33;;
11086;SDS011;5597;47.588;9.642;2023-03-14T13:36:37;2.90;;;1.90;;
11086;SDS011;5597;47.588;9.642;2023-03-14T13:39:04;1.67;;;1.47;;
11086;SDS011;5597;47.588;9.642;2023-03-14T13:41:39;1.40;;;1.10;;
11086;SDS011;5597;47.588;9.642;2023-03-14T13:44:07;1.20;;;0.90;;
11086;SDS011;5597;47.588;9.642;2023-03-14T13:46:34;1.20;;;1.10;;
11086;SDS011;5597;47.588;9.642;2023-03-14T13:49:04;0.80;;;0.73;;
11086;SDS011;5597;47.588;9.642;2023-03-14T13:51:32;1.13;;;0.70;;
11086;SDS011;5597;47.588;9.642;2023-03-14T13:53:58;0.90;;;0.80;;
11086;SDS011;5597;47.588;9.642;2023-03-14T13:56:28;1.13;;;0.83;;
11086;SDS011;5597;47.588;9.642;2023-03-14T13:58:56;1.17;;;0.80;;
11086;SDS011;5597;47.588;9.642;2023-03-14T14:01:34;0.90;;;0.70;;
11086;SDS011;5597;47.588;9.642;2023-03-14T14:04:07;0.97;;;0.70;;
11086;SDS011;5597;47.588;9.642;2023-03-14T14:06:44;1.63;;;0.90;;
11086;SDS011;5597;47.588;9.642;2023-03-14T14:09:16;0.70;;;0.70;;
11086;SDS011;5597;47.588;9.642;2023-03-14T14:11:53;0.93;;;0.83;;
11086;SDS011;5597;47.588;9.642;2023-03-14T14:14:25;0.90;;;0.80;;
11086;SDS011;5597;47.588;9.642;2023-03-14T14:16:51;1.60;;;0.90;;
11086;SDS011;5597;47.588;9.642;2023-03-14T14:19:18;0.70;;;0.70;;
11086;SDS011;5597;47.588;9.642;2023-03-14T14:21:46;0.73;;;0.60;;
11086;SDS011;5597;47.588;9.642;2023-03-14T14:24:12;0.83;;;0.60;;
11086;SDS011;5597;47.588;9.642;2023-03-14T14:26:52;1.83;;;1.20;;
11086;SDS011;5597;47.588;9.642;2023-03-14T14:29:28;1.80;;;0.80;;
11086;SDS011;5597;47.588;9.642;2023-03-14T14:32:02;1.17;;;0.90;;
11086;SDS011;5597;47.588;9.642;2023-03-14T14:34:43;2.43;;;0.80;;
11086;SDS011;5597;47.588;9.642;2023-03-14T14:37:20;1.43;;;0.97;;
11086;SDS011;5597;47.588;9.642;2023-03-14T14:39:47;1.77;;;1.00;;
11086;SDS011;5597;47.588;9.642;2023-03-14T14:42:15;2.47;;;1.00;;
11086;SDS011;5597;47.588;9.642;2023-03-14T14:44:43;3.30;;;1.10;;
11086;SDS011;5597;47.588;9.642;2023-03-14T14:47:13;1.60;;;0.90;;
11086;SDS011;5597;47.588;9.642;2023-03-14T14:49:40;2.53;;;1.00;;
11086;SDS011;5597;47.588;9.642;2023-03-14T14:52:09;1.57;;;0.90;;
11086;SDS011;5597;47.588;9.642;2023-03-14T14:54:40;2.73;;;1.20;;
11086;SDS011;5597;47.588;9.642;2023-03-14T14:57:33;4.10;;;1.17;;
11086;SDS011;5597;47.588;9.642;2023-03-14T15:00:09;1.57;;;0.87;;
11086;SDS011;5597;47.588;9.642;2023-03-14T15:02:46;2.00;;;1.10;;
11086;SDS011;5597;47.588;9.642;2023-03-14T15:05:18;2.27;;;0.90;;
11086;SDS011;5597;47.588;9.642;2023-03-14T15:07:45;2.60;;;0.97;;
11086;SDS011;5597;47.588;9.642;2023-03-14T15:10:15;2.20;;;0.90;;
11086;SDS011;5597;47.588;9.642;2023-03-14T15:12:42;1.57;;;0.80;;
11086;SDS011;5597;47.588;9.642;2023-03-14T15:15:08;1.33;;;0.70;;
11086;SDS011;5597;47.588;9.642;2023-03-14T15:17:35;1.40;;;0.77;;
11086;SDS011;5597;47.588;9.642;2023-03-14T15:20:01;1.40;;;0.80;;
11086;SDS011;5597;47.588;9.642;2023-03-14T15:22:29;1.77;;;0.83;;
11086;SDS011;5597;47.588;9.642;2023-03-14T15:24:55;3.53;;;1.13;;
11086;SDS011;5597;47.588;9.642;2023-03-14T15:27:20;2.10;;;0.70;;
11086;SDS011;5597;47.588;9.642;2023-03-14T15:29:46;2.20;;;0.87;;
11086;SDS011;5597;47.588;9.642;2023-03-14T15:32:16;1.90;;;0.90;;
11086;SDS011;5597;47.588;9.642;2023-03-14T15:34:45;3.30;;;1.70;;
11086;SDS011;5597;47.588;9.642;2023-03-14T15:37:15;2.43;;;0.90;;
11086;SDS011;5597;47.588;9.642;2023-03-14T15:39:44;1.70;;;0.70;;
11086;SDS011;5597;47.588;9.642;2023-03-14T15:42:11;1.33;;;0.80;;
11086;SDS011;5597;47.588;9.642;2023-03-14T15:44:37;2.27;;;1.00;;
11086;SDS011;5597;47.588;9.642;2023-03-14T15:47:04;4.73;;;1.47;;
11086;SDS011;5597;47.588;9.642;2023-03-14T15:49:30;2.13;;;0.80;;
11086;SDS011;5597;47.588;9.642;2023-03-14T15:51:57;2.60;;;0.90;;
11086;SDS011;5597;47.588;9.642;2023-03-14T15:54:22;2.17;;;0.90;;
11086;SDS011;5597;47.588;9.642;2023-03-14T15:56:48;1.50;;;0.90;;
11086;SDS011;5597;47.588;9.642;2023-03-14T15:59:14;3.17;;;1.23;;